Terminal Aerodrome Forecast
Issued by NWS

Home | Current Version | Previous Version | Text Only | Print | Product List | Glossary On
Versions: 1 2 3 4 5 6 7 8 9 10 11 12 13 14 15 16 17 18 19 20
000
FTUS43 KLSX 182339
TAFCPS
TAF
KCPS 182339Z 1900/1924 15012KT P6SM BKN200
     FM190300 17010KT P6SM BKN070 WS017/18045KT
     FM190700 18010KT P6SM -SHRA VCTS OVC025CB WS017/21045KT
     FM191500 19016KT P6SM -SHRA VCTS OVC025CB
     FM191800 19018KT P6SM -SHRA OVC035
     FM192300 18015KT P6SM -SHRA OVC025=

USA.gov is the U.S. government's official web portal to all federal, state and local government web resources and services.